createdAt,value
2018-02-15T00:02:06.459Z,7.80
2018-02-15T00:04:34.027Z,8.20
2018-02-15T00:07:01.642Z,7.87
2018-02-15T00:09:29.221Z,7.40
2018-02-15T00:11:56.838Z,8.20
2018-02-15T00:14:25.213Z,8.00
2018-02-15T00:16:53.551Z,8.33
2018-02-15T00:19:21.923Z,7.63
2018-02-15T00:21:49.538Z,7.93
2018-02-15T00:24:17.109Z,7.70
2018-02-15T00:26:44.783Z,7.57
2018-02-15T00:29:12.363Z,8.00
2018-02-15T00:31:39.933Z,7.30
2018-02-15T00:34:09.498Z,8.10
2018-02-15T00:36:37.068Z,7.83
2018-02-15T00:39:04.686Z,8.00
2018-02-15T00:41:33.093Z,8.00
2018-02-15T00:44:00.777Z,7.50
2018-02-15T00:46:28.411Z,6.80
2018-02-15T00:48:56.019Z,7.90
2018-02-15T00:51:23.594Z,8.43
2018-02-15T00:53:51.209Z,8.20
2018-02-15T00:56:18.783Z,7.90
2018-02-15T00:58:46.434Z,8.20
2018-02-15T01:01:14.022Z,8.03
2018-02-15T01:03:41.595Z,8.60
2018-02-15T01:06:09.199Z,8.40
2018-02-15T01:08:36.829Z,8.03
2018-02-15T01:11:05.237Z,7.87
2018-02-15T01:13:32.812Z,8.13
2018-02-15T01:16:00.427Z,8.67
2018-02-15T01:18:28.795Z,8.60
2018-02-15T01:20:57.159Z,8.73
2018-02-15T01:23:24.770Z,8.63
2018-02-15T01:25:52.347Z,8.93
2018-02-15T01:28:19.978Z,9.17
2018-02-15T01:30:47.595Z,9.07
2018-02-15T01:33:15.187Z,9.40
2018-02-15T01:35:43.566Z,8.13
2018-02-15T01:38:11.903Z,8.97
2018-02-15T01:40:39.534Z,9.70
2018-02-15T01:43:07.111Z,8.87
2018-02-15T01:45:34.692Z,9.17
2018-02-15T01:48:02.321Z,9.10
2018-02-15T01:50:29.916Z,9.53
2018-02-15T01:52:57.502Z,8.83
2018-02-15T01:55:25.871Z,9.23
2018-02-15T01:57:54.248Z,9.23
2018-02-15T02:00:22.604Z,8.80
2018-02-15T02:02:50.210Z,9.60
2018-02-15T02:05:17.946Z,10.00
2018-02-15T02:07:46.319Z,9.73
2018-02-15T02:10:14.665Z,9.57
2018-02-15T02:12:42.293Z,8.73
2018-02-15T02:15:09.871Z,9.20
2018-02-15T02:17:39.380Z,10.40
2018-02-15T02:20:06.990Z,8.83
2018-02-15T02:22:35.366Z,9.13
2018-02-15T02:25:03.745Z,10.47
2018-02-15T02:27:31.348Z,10.10
2018-02-15T02:29:58.972Z,10.20
2018-02-15T02:32:27.305Z,9.57
2018-02-15T02:34:54.882Z,9.43
2018-02-15T02:37:22.495Z,9.30
2018-02-15T02:39:50.092Z,10.00
2018-02-15T02:42:17.709Z,9.90
2018-02-15T02:44:45.321Z,9.80
2018-02-15T02:47:12.896Z,9.70
2018-02-15T02:49:41.279Z,9.67
2018-02-15T02:52:09.716Z,9.97
2018-02-15T02:54:37.336Z,9.90
2018-02-15T02:57:04.963Z,8.93
2018-02-15T02:59:32.538Z,10.27
2018-02-15T03:02:00.875Z,10.10
2018-02-15T03:04:28.497Z,9.73
2018-02-15T03:06:56.127Z,11.10
2018-02-15T03:09:23.697Z,9.37
2018-02-15T03:11:52.095Z,9.33
2018-02-15T03:14:19.658Z,9.67
2018-02-15T03:16:47.266Z,9.80
2018-02-15T03:19:14.887Z,9.90
2018-02-15T03:21:45.068Z,9.87
2018-02-15T03:24:12.637Z,9.60
2018-02-15T03:26:41.032Z,10.70
2018-02-15T03:29:08.610Z,9.13
2018-02-15T03:31:36.217Z,9.20
2018-02-15T03:34:03.834Z,9.50
2018-02-15T03:36:31.398Z,9.87
2018-02-15T03:38:59.014Z,8.53
2018-02-15T03:41:28.347Z,10.47
2018-02-15T03:43:58.588Z,10.17
2018-02-15T03:46:26.339Z,9.77
2018-02-15T03:48:53.906Z,9.83
2018-02-15T03:51:21.529Z,9.43
2018-02-15T03:53:49.108Z,10.60
2018-02-15T03:56:16.689Z,10.13
2018-02-15T03:58:44.355Z,9.30
2018-02-15T04:01:11.919Z,9.43
2018-02-15T04:03:39.539Z,9.30
2018-02-15T04:06:07.145Z,8.93
2018-02-15T04:08:34.710Z,9.53
2018-02-15T04:11:02.309Z,9.70
2018-02-15T04:13:30.691Z,9.10
2018-02-15T04:15:58.302Z,9.43
2018-02-15T04:18:25.916Z,10.00
2018-02-15T04:20:53.491Z,9.00
2018-02-15T04:23:21.106Z,8.73
2018-02-15T04:25:49.487Z,9.20
2018-02-15T04:28:17.821Z,9.47
2018-02-15T04:30:45.443Z,9.40
2018-02-15T04:33:13.779Z,8.90
2018-02-15T04:35:41.393Z,9.00
2018-02-15T04:38:09.006Z,9.60
2018-02-15T04:40:36.569Z,8.23
2018-02-15T04:43:04.187Z,8.90
2018-02-15T04:45:31.833Z,9.00
2018-02-15T04:47:59.398Z,9.10
2018-02-15T04:50:27.008Z,9.23
2018-02-15T04:52:54.639Z,9.37
2018-02-15T04:55:22.207Z,9.00
2018-02-15T04:57:49.828Z,8.73
2018-02-15T05:00:17.426Z,9.40
2018-02-15T05:02:44.996Z,9.40
2018-02-15T05:05:12.618Z,9.00
2018-02-15T05:07:40.182Z,8.90
2018-02-15T05:10:07.811Z,8.70
2018-02-15T05:12:36.150Z,9.20
2018-02-15T05:15:03.739Z,9.80
2018-02-15T05:17:32.121Z,9.50
2018-02-15T05:20:00.505Z,9.07
2018-02-15T05:22:28.849Z,8.97
2018-02-15T05:24:56.441Z,9.97
2018-02-15T05:27:24.851Z,9.67
2018-02-15T05:29:52.431Z,10.30
2018-02-15T05:32:20.056Z,9.67
2018-02-15T05:34:47.744Z,10.43
2018-02-15T05:37:15.315Z,10.40
2018-02-15T05:39:43.704Z,10.93
2018-02-15T05:42:11.314Z,10.47
2018-02-15T05:44:38.926Z,10.37
2018-02-15T05:47:06.545Z,12.93
2018-02-15T05:49:34.122Z,11.33
2018-02-15T05:52:01.737Z,12.37
2018-02-15T05:54:30.163Z,11.57
2018-02-15T05:56:57.745Z,12.33
2018-02-15T05:59:25.321Z,12.03
2018-02-15T06:01:52.938Z,13.13
2018-02-15T06:04:20.506Z,11.37
2018-02-15T06:06:48.121Z,12.33
2018-02-15T06:09:16.496Z,12.17
2018-02-15T06:11:44.882Z,11.13
2018-02-15T06:14:12.460Z,11.40
2018-02-15T06:16:40.035Z,12.33
2018-02-15T06:19:07.647Z,11.47
2018-02-15T06:21:36.040Z,11.77
2018-02-15T06:24:03.647Z,11.60
2018-02-15T06:26:31.223Z,11.30
2018-02-15T06:28:58.867Z,12.00
2018-02-15T06:31:26.433Z,11.60
2018-02-15T06:33:54.045Z,11.83
2018-02-15T06:36:21.636Z,11.10
2018-02-15T06:38:49.984Z,11.40
2018-02-15T06:41:17.622Z,13.03
2018-02-15T06:43:46.046Z,13.23
2018-02-15T06:46:13.633Z,13.30
2018-02-15T06:48:41.248Z,11.57
2018-02-15T06:51:08.870Z,11.03
2018-02-15T06:53:37.211Z,12.30
2018-02-15T06:56:04.801Z,12.57
2018-02-15T06:58:32.425Z,12.60
2018-02-15T07:01:00.028Z,12.13
2018-02-15T07:03:27.625Z,13.27
2018-02-15T07:05:55.202Z,13.43
2018-02-15T07:08:22.843Z,12.53
2018-02-15T07:10:50.426Z,13.00
2018-02-15T07:13:18.035Z,14.73
2018-02-15T07:15:46.418Z,12.70
2018-02-15T07:18:14.817Z,13.00
2018-02-15T07:20:42.399Z,12.80
2018-02-15T07:23:09.979Z,13.23
2018-02-15T07:25:37.639Z,13.60
2018-02-15T07:28:05.209Z,13.20
2018-02-15T07:30:32.827Z,13.27
2018-02-15T07:33:00.394Z,12.60
2018-02-15T07:35:28.028Z,14.77
2018-02-15T07:37:55.598Z,14.23
2018-02-15T07:40:23.221Z,14.80
2018-02-15T07:42:51.574Z,14.53
2018-02-15T07:45:19.406Z,13.53
2018-02-15T07:47:46.991Z,14.00
2018-02-15T07:50:14.606Z,12.80
2018-02-15T07:52:42.996Z,13.87
2018-02-15T07:55:10.574Z,14.20
2018-02-15T07:57:38.197Z,14.17
2018-02-15T08:00:06.538Z,16.03
2018-02-15T08:02:34.105Z,12.97
2018-02-15T08:05:02.558Z,15.67
2018-02-15T08:07:30.150Z,15.50
2018-02-15T08:09:57.763Z,14.10
2018-02-15T08:12:25.374Z,15.20
2018-02-15T08:14:52.994Z,15.30
2018-02-15T08:17:20.568Z,14.10
2018-02-15T08:19:48.187Z,14.67
2018-02-15T08:22:15.759Z,14.80
2018-02-15T08:24:43.325Z,13.73
2018-02-15T08:27:10.950Z,14.90
2018-02-15T08:29:39.288Z,14.23
2018-02-15T08:32:06.918Z,13.97
2018-02-15T08:34:34.496Z,15.27
2018-02-15T08:37:02.106Z,16.30
2018-02-15T08:39:30.450Z,15.80
2018-02-15T08:41:58.062Z,15.83
2018-02-15T08:44:25.629Z,16.53
2018-02-15T08:46:53.253Z,15.93
2018-02-15T08:49:21.602Z,16.60
2018-02-15T08:51:49.212Z,17.13
2018-02-15T08:54:17.546Z,16.53
2018-02-15T08:56:45.159Z,16.97
2018-02-15T08:59:12.756Z,17.60
2018-02-15T09:01:40.342Z,18.10
2018-02-15T09:04:07.997Z,18.60
2018-02-15T09:06:35.565Z,17.87
2018-02-15T09:09:03.146Z,18.20
2018-02-15T09:11:31.527Z,19.33
2018-02-15T09:13:59.858Z,17.93
2018-02-15T09:16:27.463Z,20.53
2018-02-15T09:18:55.094Z,19.23
2018-02-15T09:21:23.453Z,19.60
2018-02-15T09:23:51.080Z,19.53
2018-02-15T09:26:18.689Z,20.57
2018-02-15T09:28:46.270Z,21.07
2018-02-15T09:31:14.647Z,20.83
2018-02-15T09:33:42.984Z,20.33
2018-02-15T09:36:10.597Z,21.70
2018-02-15T09:38:38.978Z,19.93
2018-02-15T09:41:06.594Z,21.57
2018-02-15T09:43:34.202Z,19.23
2018-02-15T09:46:01.767Z,21.37
2018-02-15T09:48:29.379Z,21.87
2018-02-15T09:50:56.998Z,21.03
2018-02-15T09:53:24.576Z,20.97
2018-02-15T09:55:52.230Z,19.67
2018-02-15T09:58:19.800Z,21.53
2018-02-15T10:00:47.423Z,21.50
2018-02-15T10:03:15.004Z,21.93
2018-02-15T10:05:42.620Z,22.47
2018-02-15T10:08:10.951Z,22.97
2018-02-15T10:10:38.567Z,22.30
2018-02-15T10:13:06.898Z,22.77
2018-02-15T10:15:34.469Z,23.03
2018-02-15T10:18:02.086Z,22.40
2018-02-15T10:20:29.662Z,24.23
2018-02-15T10:22:57.280Z,24.47
2018-02-15T10:25:25.630Z,24.03
2018-02-15T10:27:53.319Z,25.30
2018-02-15T10:30:21.700Z,23.90
2018-02-15T10:32:50.031Z,23.80
2018-02-15T10:35:17.604Z,22.70
2018-02-15T10:37:45.990Z,25.67
2018-02-15T10:40:13.558Z,24.80
2018-02-15T10:42:41.942Z,24.13
2018-02-15T10:45:10.282Z,23.63
2018-02-15T10:47:37.868Z,25.47
2018-02-15T10:50:05.486Z,24.50
2018-02-15T10:52:33.116Z,24.63
2018-02-15T10:55:00.768Z,24.83
2018-02-15T10:57:29.151Z,24.27
2018-02-15T10:59:57.543Z,24.97
2018-02-15T11:02:25.152Z,23.40
2018-02-15T11:04:58.339Z,25.03
2018-02-15T11:07:25.946Z,24.13
2018-02-15T11:09:53.530Z,24.70
2018-02-15T11:12:21.244Z,24.67
2018-02-15T11:14:49.605Z,23.40
2018-02-15T11:17:17.208Z,24.30
2018-02-15T11:19:44.843Z,25.00
2018-02-15T11:22:13.218Z,22.67
2018-02-15T11:24:40.802Z,25.33
2018-02-15T11:27:08.414Z,24.27
2018-02-15T11:29:36.026Z,24.97
2018-02-15T11:32:03.608Z,25.43
2018-02-15T11:34:31.458Z,23.77
2018-02-15T11:36:59.040Z,24.57
2018-02-15T11:39:26.660Z,24.73
2018-02-15T11:41:54.999Z,25.93
2018-02-15T11:44:22.631Z,24.33
2018-02-15T11:46:50.246Z,26.07
2018-02-15T11:49:18.646Z,24.97
2018-02-15T11:51:46.350Z,26.60
2018-02-15T11:54:13.970Z,25.63
2018-02-15T11:56:41.540Z,26.33
2018-02-15T11:59:09.121Z,28.40
2018-02-15T12:01:36.757Z,26.43
2018-02-15T12:04:04.332Z,27.57
2018-02-15T12:06:31.907Z,28.50
2018-02-15T12:08:59.530Z,29.60
2018-02-15T12:11:27.116Z,28.10
2018-02-15T12:13:54.731Z,30.50
2018-02-15T12:16:23.124Z,31.30
2018-02-15T12:18:50.740Z,31.33
2018-02-15T12:21:18.365Z,32.77
2018-02-15T12:23:45.991Z,31.30
2018-02-15T12:26:14.408Z,30.73
2018-02-15T12:28:41.989Z,30.07
2018-02-15T12:31:09.603Z,29.93
2018-02-15T12:33:37.187Z,29.13
2018-02-15T12:36:04.781Z,30.53
2018-02-15T12:38:32.398Z,30.80
2018-02-15T12:41:00.004Z,27.83
2018-02-15T12:43:27.614Z,29.80
2018-02-15T12:45:55.189Z,29.23
2018-02-15T12:48:22.828Z,29.67
2018-02-15T12:50:50.442Z,30.77
2018-02-15T12:53:18.107Z,30.73
2018-02-15T12:55:45.677Z,30.77
2018-02-15T12:58:14.063Z,31.03
2018-02-15T13:00:42.399Z,30.73
2018-02-15T13:03:09.972Z,32.40
2018-02-15T13:05:37.590Z,31.90
2018-02-15T13:08:05.203Z,33.00
2018-02-15T13:10:32.838Z,31.90
2018-02-15T13:13:12.465Z,30.93
2018-02-15T13:15:51.916Z,31.83
2018-02-15T13:18:19.490Z,32.37
2018-02-15T13:20:48.903Z,33.93
2018-02-15T13:23:16.511Z,31.30
2018-02-15T13:25:44.087Z,30.47
2018-02-15T13:28:23.555Z,30.50
2018-02-15T13:30:51.166Z,31.93
2018-02-15T13:33:18.744Z,30.07
2018-02-15T13:35:46.381Z,30.93
2018-02-15T13:38:13.986Z,31.70
2018-02-15T13:40:41.606Z,29.87
2018-02-15T13:43:09.182Z,31.57
2018-02-15T13:45:36.807Z,29.80
2018-02-15T13:48:04.385Z,31.67
2018-02-15T13:50:31.959Z,32.30
2018-02-15T13:52:59.583Z,31.13
2018-02-15T13:55:27.983Z,31.70
2018-02-15T13:57:55.591Z,30.93
2018-02-15T14:00:24.311Z,30.97
2018-02-15T14:02:52.702Z,30.80
2018-02-15T14:05:21.266Z,32.23
2018-02-15T14:07:49.674Z,29.20
2018-02-15T14:10:17.292Z,30.87
2018-02-15T14:12:45.655Z,29.07
2018-02-15T14:15:13.374Z,31.27
2018-02-15T14:17:41.111Z,32.10
2018-02-15T14:20:09.452Z,31.17
2018-02-15T14:22:37.131Z,30.70
2018-02-15T14:25:04.710Z,31.90
2018-02-15T14:27:32.352Z,31.10
2018-02-15T14:29:59.970Z,32.50
2018-02-15T14:32:27.550Z,30.13
2018-02-15T14:34:55.203Z,32.87
2018-02-15T14:37:22.804Z,32.43
2018-02-15T14:39:51.191Z,31.53
2018-02-15T14:42:18.790Z,32.73
2018-02-15T14:44:46.378Z,33.27
2018-02-15T14:47:15.830Z,31.60
2018-02-15T14:49:43.447Z,31.87
2018-02-15T14:52:11.414Z,31.83
2018-02-15T14:54:38.994Z,32.20
2018-02-15T14:57:07.458Z,33.80
2018-02-15T14:59:35.030Z,33.77
2018-02-15T15:02:03.529Z,32.77
2018-02-15T15:04:31.101Z,35.00
2018-02-15T15:06:58.738Z,35.70
2018-02-15T15:09:27.089Z,36.40
2018-02-15T15:11:54.798Z,35.47
2018-02-15T15:14:22.370Z,36.83
2018-02-15T15:16:49.945Z,37.53
2018-02-15T15:19:17.649Z,37.80
2018-02-15T15:21:45.986Z,38.87
2018-02-15T15:24:13.570Z,37.27
2018-02-15T15:26:41.187Z,40.97
2018-02-15T15:29:08.766Z,41.93
2018-02-15T15:31:36.463Z,42.37
2018-02-15T15:34:04.047Z,42.77
2018-02-15T15:36:31.688Z,42.67
2018-02-15T15:39:00.077Z,42.43
2018-02-15T15:41:28.459Z,41.30
2018-02-15T15:43:56.852Z,40.93
2018-02-15T15:46:24.483Z,43.33
2018-02-15T15:48:53.051Z,42.37
2018-02-15T15:51:20.730Z,43.57
2018-02-15T15:53:48.418Z,40.90
2018-02-15T15:56:16.031Z,44.30
2018-02-15T15:58:43.759Z,41.97
2018-02-15T16:01:12.177Z,41.43
2018-02-15T16:03:39.808Z,40.27
2018-02-15T16:06:07.722Z,38.83
2018-02-15T16:08:36.143Z,40.40
2018-02-15T16:11:03.790Z,41.13
2018-02-15T16:13:33.957Z,40.40
2018-02-15T16:16:01.650Z,40.60
2018-02-15T16:18:30.254Z,42.13
2018-02-15T16:20:59.480Z,43.40
2018-02-15T16:23:27.123Z,43.30
2018-02-15T16:25:54.751Z,43.70
2018-02-15T16:28:23.174Z,43.93
2018-02-15T16:30:50.779Z,45.77
2018-02-15T16:33:19.241Z,44.33
2018-02-15T16:35:47.080Z,44.03
2018-02-15T16:38:14.742Z,44.10
2018-02-15T16:40:42.406Z,45.70
2018-02-15T16:43:10.055Z,47.13
2018-02-15T16:45:37.802Z,46.80
2018-02-15T16:48:05.397Z,47.87
2018-02-15T16:50:33.036Z,48.07
2018-02-15T16:53:01.370Z,46.93
2018-02-15T16:55:29.770Z,50.07
2018-02-15T16:57:57.418Z,45.17
2018-02-15T17:00:24.995Z,43.47
2018-02-15T17:02:54.753Z,44.27
2018-02-15T17:05:22.338Z,43.33
2018-02-15T17:07:50.056Z,47.03
2018-02-15T17:10:17.650Z,44.43
2018-02-15T17:12:45.467Z,45.37
2018-02-15T17:15:13.118Z,46.97
2018-02-15T17:17:40.693Z,48.73
2018-02-15T17:20:09.157Z,43.23
2018-02-15T17:22:36.804Z,47.40
2018-02-15T17:25:05.276Z,46.80
2018-02-15T17:27:33.881Z,46.50
2018-02-15T17:30:02.362Z,45.20
2018-02-15T17:32:30.518Z,43.70
2018-02-15T17:35:02.150Z,44.90
2018-02-15T17:37:30.746Z,44.43
2018-02-15T17:39:59.175Z,42.63
2018-02-15T17:42:27.048Z,42.97
2018-02-15T17:44:56.315Z,43.03
2018-02-15T17:47:23.965Z,41.07
2018-02-15T17:49:52.622Z,39.50
2018-02-15T17:52:20.282Z,39.50
2018-02-15T17:54:50.784Z,37.73
2018-02-15T17:57:18.556Z,37.00
2018-02-15T17:59:47.163Z,37.50
2018-02-15T18:02:15.441Z,38.30
2018-02-15T18:04:43.910Z,35.83
2018-02-15T18:07:14.105Z,35.60
2018-02-15T18:09:42.832Z,34.73
2018-02-15T18:12:11.276Z,35.70
2018-02-15T18:14:39.144Z,34.27
2018-02-15T18:17:07.367Z,37.13
2018-02-15T18:19:35.026Z,37.63
2018-02-15T18:22:04.234Z,37.50
2018-02-15T18:24:31.840Z,38.20
2018-02-15T18:26:59.579Z,38.77
2018-02-15T18:29:27.787Z,39.20
2018-02-15T18:31:55.733Z,38.87
2018-02-15T18:34:23.414Z,39.80
2018-02-15T18:36:52.482Z,39.40
2018-02-15T18:39:20.131Z,40.67
2018-02-15T18:41:48.352Z,40.20
2018-02-15T18:44:15.986Z,36.57
2018-02-15T18:46:45.476Z,36.57
2018-02-15T18:49:13.137Z,36.03
2018-02-15T18:51:41.340Z,35.67
2018-02-15T18:54:08.996Z,35.50
2018-02-15T18:56:36.646Z,33.33
2018-02-15T18:59:04.285Z,34.53
2018-02-15T19:01:31.915Z,33.43
2018-02-15T19:04:00.313Z,33.33
2018-02-15T19:06:27.911Z,32.17
2018-02-15T19:08:55.535Z,31.90
2018-02-15T19:13:57.042Z,30.27
2018-02-15T19:16:24.640Z,29.80
2018-02-15T19:18:52.978Z,30.00
2018-02-15T19:21:20.618Z,29.53
2018-02-15T19:23:48.229Z,30.13
2018-02-15T19:26:16.751Z,30.00
2018-02-15T19:28:44.405Z,33.53
2018-02-15T19:31:12.046Z,33.80
2018-02-15T19:33:40.563Z,32.60
2018-02-15T19:36:08.143Z,34.00
2018-02-15T19:38:35.766Z,34.20
2018-02-15T19:41:03.410Z,33.00
2018-02-15T19:43:30.987Z,33.00
2018-02-15T19:45:58.603Z,31.80
2018-02-15T19:48:26.247Z,30.10
2018-02-15T19:50:53.818Z,30.50
2018-02-15T19:53:21.493Z,29.93
2018-02-15T19:55:49.143Z,30.23
2018-02-15T19:58:17.034Z,29.57
2018-02-15T20:00:44.610Z,30.03
2018-02-15T20:03:12.337Z,30.27
2018-02-15T20:05:40.024Z,28.27
2018-02-15T20:08:09.548Z,29.10
2018-02-15T20:10:37.438Z,27.37
2018-02-15T20:13:05.094Z,27.07
2018-02-15T20:15:38.465Z,25.60
2018-02-15T20:18:06.079Z,24.70
2018-02-15T20:20:33.734Z,24.23
2018-02-15T20:23:02.354Z,23.73
2018-02-15T20:25:30.746Z,22.37
2018-02-15T20:28:04.115Z,23.37
2018-02-15T20:30:35.635Z,22.27
2018-02-15T20:33:03.271Z,23.63
2018-02-15T20:35:30.900Z,23.90
2018-02-15T20:38:04.832Z,23.03
2018-02-15T20:40:38.420Z,22.13
2018-02-15T20:43:06.015Z,22.63
2018-02-15T20:45:33.621Z,21.00
2018-02-15T20:48:02.047Z,18.90
2018-02-15T20:50:36.282Z,18.30
2018-02-15T20:53:11.749Z,17.60
2018-02-15T20:55:45.796Z,16.90
2018-02-15T20:58:13.432Z,17.53
2018-02-15T21:00:41.238Z,16.37
2018-02-15T21:03:08.860Z,15.63
2018-02-15T21:05:37.511Z,14.57
2018-02-15T21:08:05.129Z,15.50
2018-02-15T21:10:32.827Z,14.73
2018-02-15T21:13:00.402Z,14.13
2018-02-15T21:15:28.032Z,14.57
2018-02-15T21:17:55.621Z,14.37
2018-02-15T21:20:23.432Z,12.83
2018-02-15T21:22:51.468Z,12.60
2018-02-15T21:25:20.014Z,10.77
2018-02-15T21:27:47.582Z,11.97
2018-02-15T21:30:15.174Z,10.90
2018-02-15T21:32:43.540Z,11.07
2018-02-15T21:35:11.242Z,8.63
2018-02-15T21:37:39.943Z,8.97
2018-02-15T21:40:07.515Z,9.17
2018-02-15T21:42:35.142Z,8.27
2018-02-15T21:45:02.750Z,7.97
2018-02-15T21:47:30.363Z,7.17
2018-02-15T21:49:58.071Z,8.30
2018-02-15T21:52:26.231Z,6.57
2018-02-15T21:54:53.948Z,5.50
2018-02-15T21:57:28.685Z,5.87
2018-02-15T21:59:56.642Z,6.27
2018-02-15T22:02:24.342Z,5.70
2018-02-15T22:04:52.020Z,5.47
2018-02-15T22:07:22.117Z,5.03
2018-02-15T22:09:49.734Z,4.73
2018-02-15T22:12:21.307Z,5.00
2018-02-15T22:14:53.942Z,4.73
2018-02-15T22:17:22.386Z,3.90
2018-02-15T22:19:50.069Z,3.47
2018-02-15T22:22:17.754Z,3.07
2018-02-15T22:24:45.373Z,3.57
2018-02-15T22:27:13.619Z,3.60
2018-02-15T22:29:41.322Z,3.53
2018-02-15T22:32:09.299Z,3.70
2018-02-15T22:34:38.388Z,3.83
2018-02-15T22:37:06.011Z,2.90
2018-02-15T22:39:33.718Z,3.87
2018-02-15T22:42:01.418Z,3.83
2018-02-15T22:44:29.767Z,3.90
2018-02-15T22:46:58.249Z,3.77
2018-02-15T22:49:26.419Z,3.97
2018-02-15T22:51:55.063Z,4.03
2018-02-15T22:54:22.755Z,3.30
2018-02-15T22:56:50.531Z,4.00
2018-02-15T22:59:18.356Z,4.33
2018-02-15T23:01:45.932Z,4.07
2018-02-15T23:04:14.126Z,4.63
2018-02-15T23:06:41.943Z,5.10
2018-02-15T23:09:09.637Z,3.87
2018-02-15T23:11:38.484Z,4.63
2018-02-15T23:14:06.613Z,5.07
2018-02-15T23:16:36.188Z,4.30
2018-02-15T23:19:03.832Z,4.37
2018-02-15T23:21:31.488Z,5.13
2018-02-15T23:23:59.073Z,5.57
2018-02-15T23:26:26.681Z,4.87
2018-02-15T23:28:54.358Z,5.13
2018-02-15T23:31:24.919Z,5.40
2018-02-15T23:33:52.663Z,5.33
2018-02-15T23:36:21.149Z,4.70
2018-02-15T23:38:49.496Z,5.20
2018-02-15T23:41:17.411Z,5.30
2018-02-15T23:43:45.288Z,5.60
2018-02-15T23:46:12.965Z,5.03
2018-02-15T23:48:40.809Z,5.60
2018-02-15T23:51:08.739Z,5.07
2018-02-15T23:53:36.494Z,5.63
2018-02-15T23:56:04.173Z,4.67
2018-02-15T23:58:32.772Z,5.10
